sensor_id;sensor_type;location;lat;lon;timestamp;pressure;altitude;pressure_sealevel;temperature;humidity
5755;BME280;2902;42.130;24.732;2024-02-28T00:01:49;99981.22;;;8.91;91.49
5755;BME280;2902;42.130;24.732;2024-02-28T00:04:16;99988.31;;;8.98;91.04
5755;BME280;2902;42.130;24.732;2024-02-28T00:06:43;99994.19;;;8.86;90.24
5755;BME280;2902;42.130;24.732;2024-02-28T00:09:11;99993.63;;;8.90;91.16
5755;BME280;2902;42.130;24.732;2024-02-28T00:11:42;99995.84;;;8.79;91.34
5755;BME280;2902;42.130;24.732;2024-02-28T00:14:09;99997.81;;;8.85;91.10
5755;BME280;2902;42.130;24.732;2024-02-28T00:16:36;99998.78;;;8.92;91.46
5755;BME280;2902;42.130;24.732;2024-02-28T00:19:04;100001.13;;;8.87;91.44
5755;BME280;2902;42.130;24.732;2024-02-28T00:21:31;99998.06;;;8.98;91.28
5755;BME280;2902;42.130;24.732;2024-02-28T00:23:58;100000.78;;;8.90;90.91
5755;BME280;2902;42.130;24.732;2024-02-28T00:26:25;100001.22;;;8.63;92.10
5755;BME280;2902;42.130;24.732;2024-02-28T00:28:52;100003.81;;;8.79;92.37
5755;BME280;2902;42.130;24.732;2024-02-28T00:31:19;100002.28;;;8.84;92.26
5755;BME280;2902;42.130;24.732;2024-02-28T00:33:46;100008.00;;;8.65;91.81
5755;BME280;2902;42.130;24.732;2024-02-28T00:36:15;100007.81;;;8.67;92.47
5755;BME280;2902;42.130;24.732;2024-02-28T00:38:42;100006.44;;;8.79;92.79
5755;BME280;2902;42.130;24.732;2024-02-28T00:41:08;100015.09;;;8.65;92.37
5755;BME280;2902;42.130;24.732;2024-02-28T00:43:35;100004.84;;;8.70;92.24
5755;BME280;2902;42.130;24.732;2024-02-28T00:46:02;100009.75;;;8.81;91.97
5755;BME280;2902;42.130;24.732;2024-02-28T00:48:29;100007.47;;;8.78;91.31
5755;BME280;2902;42.130;24.732;2024-02-28T00:50:56;100014.19;;;8.88;91.66
5755;BME280;2902;42.130;24.732;2024-02-28T00:53:25;100013.97;;;8.98;91.58
5755;BME280;2902;42.130;24.732;2024-02-28T00:55:51;100020.91;;;9.07;90.56
5755;BME280;2902;42.130;24.732;2024-02-28T00:58:18;100010.13;;;9.08;90.37
5755;BME280;2902;42.130;24.732;2024-02-28T01:00:45;100015.22;;;9.10;90.12
5755;BME280;2902;42.130;24.732;2024-02-28T01:03:12;100011.28;;;9.06;90.22
5755;BME280;2902;42.130;24.732;2024-02-28T01:05:40;100012.97;;;8.99;90.18
5755;BME280;2902;42.130;24.732;2024-02-28T01:08:07;100012.75;;;8.78;90.88
5755;BME280;2902;42.130;24.732;2024-02-28T01:10:35;100010.13;;;8.70;91.05
5755;BME280;2902;42.130;24.732;2024-02-28T01:13:03;100008.25;;;8.78;91.31
5755;BME280;2902;42.130;24.732;2024-02-28T01:15:30;100012.22;;;8.82;90.70
5755;BME280;2902;42.130;24.732;2024-02-28T01:17:57;100009.53;;;8.90;90.58
5755;BME280;2902;42.130;24.732;2024-02-28T01:20:24;100015.34;;;8.94;90.52
5755;BME280;2902;42.130;24.732;2024-02-28T01:22:51;100015.97;;;8.96;90.14
5755;BME280;2902;42.130;24.732;2024-02-28T01:25:18;100018.97;;;8.93;89.97
5755;BME280;2902;42.130;24.732;2024-02-28T01:27:46;100017.44;;;8.60;92.10
5755;BME280;2902;42.130;24.732;2024-02-28T01:30:13;100007.78;;;8.75;91.28
5755;BME280;2902;42.130;24.732;2024-02-28T01:32:40;100007.59;;;8.84;90.92
5755;BME280;2902;42.130;24.732;2024-02-28T01:35:08;100014.44;;;8.63;91.08
5755;BME280;2902;42.130;24.732;2024-02-28T01:37:35;100012.13;;;8.68;91.53
5755;BME280;2902;42.130;24.732;2024-02-28T01:40:03;100022.75;;;8.52;91.12
5755;BME280;2902;42.130;24.732;2024-02-28T01:42:30;100019.13;;;8.53;92.06
5755;BME280;2902;42.130;24.732;2024-02-28T01:44:58;100025.56;;;8.50;91.28
5755;BME280;2902;42.130;24.732;2024-02-28T01:47:26;100032.03;;;8.48;91.73
5755;BME280;2902;42.130;24.732;2024-02-28T01:49:53;100028.59;;;8.31;91.54
5755;BME280;2902;42.130;24.732;2024-02-28T01:52:20;100030.91;;;8.34;92.10
5755;BME280;2902;42.130;24.732;2024-02-28T01:54:47;100029.63;;;8.30;92.33
5755;BME280;2902;42.130;24.732;2024-02-28T01:57:14;100025.44;;;8.28;91.98
5755;BME280;2902;42.130;24.732;2024-02-28T01:59:42;100030.41;;;8.31;92.49
5755;BME280;2902;42.130;24.732;2024-02-28T02:02:10;100028.75;;;8.38;92.26
5755;BME280;2902;42.130;24.732;2024-02-28T02:04:37;100024.09;;;8.40;91.58
5755;BME280;2902;42.130;24.732;2024-02-28T02:07:05;100030.72;;;8.36;92.21
5755;BME280;2902;42.130;24.732;2024-02-28T02:09:34;100027.94;;;8.29;92.61
5755;BME280;2902;42.130;24.732;2024-02-28T02:12:01;100040.81;;;8.40;92.39
5755;BME280;2902;42.130;24.732;2024-02-28T02:14:27;100039.31;;;8.46;91.69
5755;BME280;2902;42.130;24.732;2024-02-28T02:16:54;100043.28;;;8.50;92.19
5755;BME280;2902;42.130;24.732;2024-02-28T02:19:22;100041.97;;;8.54;90.86
5755;BME280;2902;42.130;24.732;2024-02-28T02:21:52;100054.38;;;8.45;91.27
5755;BME280;2902;42.130;24.732;2024-02-28T02:24:21;100056.03;;;8.46;91.71
5755;BME280;2902;42.130;24.732;2024-02-28T02:26:48;100060.50;;;8.54;91.78
5755;BME280;2902;42.130;24.732;2024-02-28T02:29:17;100066.09;;;8.59;90.95
5755;BME280;2902;42.130;24.732;2024-02-28T02:31:44;100071.06;;;8.62;90.79
5755;BME280;2902;42.130;24.732;2024-02-28T02:34:11;100072.22;;;8.67;90.68
5755;BME280;2902;42.130;24.732;2024-02-28T02:36:38;100079.00;;;8.70;91.05
5755;BME280;2902;42.130;24.732;2024-02-28T02:39:05;100080.31;;;8.74;90.58
5755;BME280;2902;42.130;24.732;2024-02-28T02:41:34;100079.31;;;8.75;90.16
5755;BME280;2902;42.130;24.732;2024-02-28T02:44:01;100087.09;;;8.68;90.35
5755;BME280;2902;42.130;24.732;2024-02-28T02:46:28;100082.94;;;8.74;90.36
5755;BME280;2902;42.130;24.732;2024-02-28T02:48:55;100081.63;;;8.78;90.30
5755;BME280;2902;42.130;24.732;2024-02-28T02:51:22;100071.03;;;8.70;90.12
5755;BME280;2902;42.130;24.732;2024-02-28T02:53:49;100088.22;;;8.82;89.70
5755;BME280;2902;42.130;24.732;2024-02-28T02:56:16;100091.19;;;8.87;89.52
5755;BME280;2902;42.130;24.732;2024-02-28T02:58:44;100094.47;;;8.89;89.20
5755;BME280;2902;42.130;24.732;2024-02-28T03:01:11;100083.53;;;8.92;89.02
5755;BME280;2902;42.130;24.732;2024-02-28T03:03:37;100092.50;;;8.91;89.17
5755;BME280;2902;42.130;24.732;2024-02-28T03:06:04;100081.22;;;8.89;89.39
5755;BME280;2902;42.130;24.732;2024-02-28T03:08:31;100082.53;;;8.93;89.21
5755;BME280;2902;42.130;24.732;2024-02-28T03:10:58;100083.22;;;8.95;89.01
5755;BME280;2902;42.130;24.732;2024-02-28T03:13:25;100088.00;;;8.91;88.22
5755;BME280;2902;42.130;24.732;2024-02-28T03:15:53;100093.81;;;8.95;88.88
5755;BME280;2902;42.130;24.732;2024-02-28T03:18:20;100085.84;;;8.95;89.02
5755;BME280;2902;42.130;24.732;2024-02-28T03:20:47;100081.91;;;8.91;88.32
5755;BME280;2902;42.130;24.732;2024-02-28T03:23:13;100081.13;;;8.66;88.58
5755;BME280;2902;42.130;24.732;2024-02-28T03:25:40;100086.44;;;8.66;89.41
5755;BME280;2902;42.130;24.732;2024-02-28T03:28:07;100091.88;;;8.73;90.30
5755;BME280;2902;42.130;24.732;2024-02-28T03:30:34;100084.25;;;8.78;90.24
5755;BME280;2902;42.130;24.732;2024-02-28T03:33:03;100082.25;;;8.80;89.69
5755;BME280;2902;42.130;24.732;2024-02-28T03:35:29;100090.69;;;8.83;89.68
5755;BME280;2902;42.130;24.732;2024-02-28T03:37:56;100094.16;;;8.84;89.64
5755;BME280;2902;42.130;24.732;2024-02-28T03:40:23;100079.75;;;8.86;89.13
5755;BME280;2902;42.130;24.732;2024-02-28T03:42:50;100085.06;;;8.86;89.34
5755;BME280;2902;42.130;24.732;2024-02-28T03:45:16;100082.22;;;8.88;89.13
5755;BME280;2902;42.130;24.732;2024-02-28T03:47:45;100081.41;;;8.87;89.86
5755;BME280;2902;42.130;24.732;2024-02-28T03:50:13;100080.44;;;8.80;89.58
5755;BME280;2902;42.130;24.732;2024-02-28T03:52:40;100085.56;;;8.82;89.67
5755;BME280;2902;42.130;24.732;2024-02-28T03:55:07;100087.22;;;8.83;89.65
5755;BME280;2902;42.130;24.732;2024-02-28T03:57:34;100086.22;;;8.84;89.59
5755;BME280;2902;42.130;24.732;2024-02-28T04:00:01;100085.06;;;8.86;89.61
5755;BME280;2902;42.130;24.732;2024-02-28T04:02:30;100086.56;;;8.81;88.99
5755;BME280;2902;42.130;24.732;2024-02-28T04:04:58;100093.84;;;8.79;88.94
5755;BME280;2902;42.130;24.732;2024-02-28T04:07:26;100103.28;;;8.81;88.78
5755;BME280;2902;42.130;24.732;2024-02-28T04:09:53;100098.81;;;8.82;89.39
5755;BME280;2902;42.130;24.732;2024-02-28T04:12:19;100105.75;;;8.83;89.44
5755;BME280;2902;42.130;24.732;2024-02-28T04:14:46;100112.72;;;8.84;89.11
5755;BME280;2902;42.130;24.732;2024-02-28T04:17:13;100112.88;;;8.82;89.28
5755;BME280;2902;42.130;24.732;2024-02-28T04:19:40;100108.91;;;8.78;89.26
5755;BME280;2902;42.130;24.732;2024-02-28T04:22:07;100112.88;;;8.74;89.03
5755;BME280;2902;42.130;24.732;2024-02-28T04:24:35;100114.75;;;8.66;88.85
5755;BME280;2902;42.130;24.732;2024-02-28T04:27:02;100103.50;;;8.56;90.06
5755;BME280;2902;42.130;24.732;2024-02-28T04:29:30;100111.81;;;8.45;89.09
5755;BME280;2902;42.130;24.732;2024-02-28T04:31:57;100106.69;;;8.35;88.49
5755;BME280;2902;42.130;24.732;2024-02-28T04:34:24;100113.78;;;8.27;87.60
5755;BME280;2902;42.130;24.732;2024-02-28T04:36:51;100108.13;;;8.14;87.16
5755;BME280;2902;42.130;24.732;2024-02-28T04:39:17;100116.41;;;8.03;88.34
5755;BME280;2902;42.130;24.732;2024-02-28T04:41:45;100114.09;;;7.84;87.49
5755;BME280;2902;42.130;24.732;2024-02-28T04:44:12;100117.34;;;7.70;88.15
5755;BME280;2902;42.130;24.732;2024-02-28T04:46:39;100121.28;;;7.58;89.20
5755;BME280;2902;42.130;24.732;2024-02-28T04:49:05;100122.56;;;7.46;89.14
5755;BME280;2902;42.130;24.732;2024-02-28T04:51:33;100124.53;;;7.36;89.87
5755;BME280;2902;42.130;24.732;2024-02-28T04:54:00;100124.19;;;7.31;89.86
5755;BME280;2902;42.130;24.732;2024-02-28T04:56:27;100122.97;;;7.17;90.02
5755;BME280;2902;42.130;24.732;2024-02-28T04:58:55;100116.66;;;7.10;91.41
5755;BME280;2902;42.130;24.732;2024-02-28T05:01:21;100116.47;;;7.04;91.75
5755;BME280;2902;42.130;24.732;2024-02-28T05:03:48;100116.00;;;7.08;93.25
5755;BME280;2902;42.130;24.732;2024-02-28T05:06:15;100113.22;;;7.10;91.64
5755;BME280;2902;42.130;24.732;2024-02-28T05:08:42;100114.91;;;7.19;92.14
5755;BME280;2902;42.130;24.732;2024-02-28T05:11:08;100115.94;;;7.26;91.50
5755;BME280;2902;42.130;24.732;2024-02-28T05:13:35;100118.22;;;7.29;91.93
5755;BME280;2902;42.130;24.732;2024-02-28T05:16:03;100117.59;;;7.35;90.81
5755;BME280;2902;42.130;24.732;2024-02-28T05:18:30;100120.75;;;7.38;90.80
5755;BME280;2902;42.130;24.732;2024-02-28T05:20:57;100120.13;;;7.44;90.56
5755;BME280;2902;42.130;24.732;2024-02-28T05:23:24;100135.81;;;7.54;91.24
5755;BME280;2902;42.130;24.732;2024-02-28T05:25:51;100133.53;;;7.59;90.25
5755;BME280;2902;42.130;24.732;2024-02-28T05:28:17;100140.47;;;7.60;90.73
5755;BME280;2902;42.130;24.732;2024-02-28T05:30:44;100138.47;;;7.62;91.21
5755;BME280;2902;42.130;24.732;2024-02-28T05:33:12;100140.81;;;7.73;91.29
5755;BME280;2902;42.130;24.732;2024-02-28T05:35:39;100148.47;;;7.84;90.82
5755;BME280;2902;42.130;24.732;2024-02-28T05:38:06;100159.53;;;7.87;91.70
5755;BME280;2902;42.130;24.732;2024-02-28T05:40:32;100159.03;;;7.84;91.35
5755;BME280;2902;42.130;24.732;2024-02-28T05:42:59;100152.59;;;7.86;90.13
5755;BME280;2902;42.130;24.732;2024-02-28T05:45:27;100168.97;;;7.98;90.25
5755;BME280;2902;42.130;24.732;2024-02-28T05:47:54;100169.81;;;8.06;91.01
5755;BME280;2902;42.130;24.732;2024-02-28T05:50:22;100168.00;;;8.15;89.62
5755;BME280;2902;42.130;24.732;2024-02-28T05:52:50;100166.72;;;8.27;89.27
5755;BME280;2902;42.130;24.732;2024-02-28T05:55:17;100172.69;;;8.37;89.34
5755;BME280;2902;42.130;24.732;2024-02-28T05:57:44;100168.38;;;8.44;89.05
5755;BME280;2902;42.130;24.732;2024-02-28T06:00:11;100149.50;;;8.39;88.32
5755;BME280;2902;42.130;24.732;2024-02-28T06:02:39;100173.00;;;8.58;87.70
5755;BME280;2902;42.130;24.732;2024-02-28T06:05:07;100178.78;;;8.69;88.11
5755;BME280;2902;42.130;24.732;2024-02-28T06:07:35;100176.97;;;8.78;87.14
5755;BME280;2902;42.130;24.732;2024-02-28T06:10:02;100180.78;;;8.75;86.78
5755;BME280;2902;42.130;24.732;2024-02-28T06:12:29;100190.53;;;8.67;87.40
5755;BME280;2902;42.130;24.732;2024-02-28T06:14:56;100180.78;;;8.75;88.15
5755;BME280;2902;42.130;24.732;2024-02-28T06:17:23;100186.03;;;8.83;87.18
5755;BME280;2902;42.130;24.732;2024-02-28T06:19:50;100184.88;;;8.94;86.36
5755;BME280;2902;42.130;24.732;2024-02-28T06:22:16;100191.28;;;9.07;86.46
5755;BME280;2902;42.130;24.732;2024-02-28T06:24:45;100188.75;;;9.30;87.20
5755;BME280;2902;42.130;24.732;2024-02-28T06:27:12;100189.34;;;9.48;86.02
5755;BME280;2902;42.130;24.732;2024-02-28T06:29:39;100191.25;;;9.70;85.18
5755;BME280;2902;42.130;24.732;2024-02-28T06:32:06;100200.88;;;9.93;84.57
5755;BME280;2902;42.130;24.732;2024-02-28T06:34:33;100211.63;;;10.08;82.72
5755;BME280;2902;42.130;24.732;2024-02-28T06:37:00;100213.69;;;10.20;82.83
5755;BME280;2902;42.130;24.732;2024-02-28T06:39:27;100219.53;;;10.38;82.54
5755;BME280;2902;42.130;24.732;2024-02-28T06:41:55;100212.63;;;10.52;81.62
5755;BME280;2902;42.130;24.732;2024-02-28T06:44:22;100212.56;;;10.60;81.31
5755;BME280;2902;42.130;24.732;2024-02-28T06:46:48;100224.16;;;10.67;80.15
5755;BME280;2902;42.130;24.732;2024-02-28T06:49:15;100224.25;;;10.73;79.56
5755;BME280;2902;42.130;24.732;2024-02-28T06:51:43;100224.72;;;10.77;80.03
5755;BME280;2902;42.130;24.732;2024-02-28T06:54:10;100225.66;;;10.84;79.19
5755;BME280;2902;42.130;24.732;2024-02-28T06:56:36;100218.84;;;11.19;81.49
5755;BME280;2902;42.130;24.732;2024-02-28T06:59:04;100224.16;;;11.48;78.46
5755;BME280;2902;42.130;24.732;2024-02-28T07:01:32;100225.38;;;11.74;77.07
5755;BME280;2902;42.130;24.732;2024-02-28T07:03:59;100245.59;;;12.04;74.58
5755;BME280;2902;42.130;24.732;2024-02-28T07:06:26;100235.44;;;12.29;74.41
5755;BME280;2902;42.130;24.732;2024-02-28T07:08:52;100249.66;;;12.36;73.31
5755;BME280;2902;42.130;24.732;2024-02-28T07:11:19;100249.09;;;12.40;72.18
5755;BME280;2902;42.130;24.732;2024-02-28T07:13:47;100245.28;;;12.49;73.21
5755;BME280;2902;42.130;24.732;2024-02-28T07:16:15;100259.25;;;12.72;71.93
5755;BME280;2902;42.130;24.732;2024-02-28T07:18:42;100267.25;;;12.93;71.68
5755;BME280;2902;42.130;24.732;2024-02-28T07:21:08;100257.88;;;13.25;71.82
5755;BME280;2902;42.130;24.732;2024-02-28T07:23:38;100263.22;;;13.59;69.90
5755;BME280;2902;42.130;24.732;2024-02-28T07:26:06;100268.03;;;13.76;69.44
5755;BME280;2902;42.130;24.732;2024-02-28T07:28:32;100270.78;;;13.89;67.33
5755;BME280;2902;42.130;24.732;2024-02-28T07:30:59;100278.78;;;13.89;66.06
5755;BME280;2902;42.130;24.732;2024-02-28T07:33:27;100277.22;;;14.08;66.70
5755;BME280;2902;42.130;24.732;2024-02-28T07:35:54;100277.56;;;14.32;67.06
5755;BME280;2902;42.130;24.732;2024-02-28T07:38:26;100266.50;;;14.42;64.96
5755;BME280;2902;42.130;24.732;2024-02-28T07:40:53;100265.72;;;14.61;65.28
5755;BME280;2902;42.130;24.732;2024-02-28T07:43:20;100274.78;;;14.79;63.62
5755;BME280;2902;42.130;24.732;2024-02-28T07:45:46;100274.41;;;15.02;62.15
5755;BME280;2902;42.130;24.732;2024-02-28T07:48:13;100270.09;;;15.33;63.74
5755;BME280;2902;42.130;24.732;2024-02-28T07:50:41;100276.47;;;15.19;62.02
5755;BME280;2902;42.130;24.732;2024-02-28T07:53:08;100260.81;;;15.16;65.37
5755;BME280;2902;42.130;24.732;2024-02-28T07:55:35;100255.88;;;15.46;62.61
5755;BME280;2902;42.130;24.732;2024-02-28T07:58:01;100264.44;;;15.80;60.64
5755;BME280;2902;42.130;24.732;2024-02-28T08:00:28;100256.06;;;16.15;60.41
5755;BME280;2902;42.130;24.732;2024-02-28T08:02:55;100240.59;;;16.54;58.76
5755;BME280;2902;42.130;24.732;2024-02-28T08:05:21;100230.75;;;16.79;58.16
5755;BME280;2902;42.130;24.732;2024-02-28T08:07:50;100232.03;;;17.01;57.55
5755;BME280;2902;42.130;24.732;2024-02-28T08:10:17;100236.03;;;16.92;57.06
5755;BME280;2902;42.130;24.732;2024-02-28T08:12:44;100243.59;;;17.02;56.61
5755;BME280;2902;42.130;24.732;2024-02-28T08:15:11;100232.25;;;17.24;56.45
5755;BME280;2902;42.130;24.732;2024-02-28T08:17:37;100231.31;;;17.55;55.79
5755;BME280;2902;42.130;24.732;2024-02-28T08:20:05;100231.78;;;17.88;54.46
5755;BME280;2902;42.130;24.732;2024-02-28T08:22:33;100233.25;;;18.02;51.73
5755;BME280;2902;42.130;24.732;2024-02-28T08:25:02;100231.88;;;18.29;52.14
5755;BME280;2902;42.130;24.732;2024-02-28T08:27:29;100220.22;;;18.35;53.23
5755;BME280;2902;42.130;24.732;2024-02-28T08:29:55;100217.75;;;18.63;51.99
5755;BME280;2902;42.130;24.732;2024-02-28T08:32:22;100221.28;;;18.75;51.26
5755;BME280;2902;42.130;24.732;2024-02-28T08:34:49;100215.91;;;18.75;52.24
5755;BME280;2902;42.130;24.732;2024-02-28T08:37:15;100212.59;;;18.73;52.81
5755;BME280;2902;42.130;24.732;2024-02-28T08:39:42;100213.09;;;18.70;51.35
5755;BME280;2902;42.130;24.732;2024-02-28T08:42:10;100215.41;;;18.66;52.66
5755;BME280;2902;42.130;24.732;2024-02-28T08:44:37;100218.72;;;18.80;51.05
5755;BME280;2902;42.130;24.732;2024-02-28T08:47:04;100224.25;;;18.96;50.90
5755;BME280;2902;42.130;24.732;2024-02-28T08:49:33;100213.47;;;19.19;50.92
5755;BME280;2902;42.130;24.732;2024-02-28T08:51:59;100219.50;;;19.33;49.56
5755;BME280;2902;42.130;24.732;2024-02-28T08:54:26;100230.22;;;19.10;50.36
5755;BME280;2902;42.130;24.732;2024-02-28T08:56:53;100220.91;;;19.24;48.93
5755;BME280;2902;42.130;24.732;2024-02-28T08:59:21;100218.19;;;19.47;49.93
5755;BME280;2902;42.130;24.732;2024-02-28T09:01:48;100224.50;;;19.64;49.82
5755;BME280;2902;42.130;24.732;2024-02-28T09:04:15;100226.31;;;19.86;48.10
5755;BME280;2902;42.130;24.732;2024-02-28T09:06:41;100222.16;;;20.07;48.37
5755;BME280;2902;42.130;24.732;2024-02-28T09:09:08;100217.97;;;20.11;48.26
5755;BME280;2902;42.130;24.732;2024-02-28T09:11:35;100209.38;;;19.74;49.05
5755;BME280;2902;42.130;24.732;2024-02-28T09:14:03;100218.13;;;19.93;48.71
5755;BME280;2902;42.130;24.732;2024-02-28T09:16:31;100211.94;;;19.81;48.62
5755;BME280;2902;42.130;24.732;2024-02-28T09:18:57;100210.13;;;19.86;49.53
5755;BME280;2902;42.130;24.732;2024-02-28T09:21:24;100213.00;;;20.08;48.66
5755;BME280;2902;42.130;24.732;2024-02-28T09:23:51;100182.59;;;20.52;67.72
5755;BME280;2902;42.130;24.732;2024-02-28T09:26:17;100197.50;;;21.21;56.75
5755;BME280;2902;42.130;24.732;2024-02-28T09:28:44;100204.22;;;21.35;54.88
5755;BME280;2902;42.130;24.732;2024-02-28T09:31:11;100214.13;;;21.67;47.56
5755;BME280;2902;42.130;24.732;2024-02-28T09:33:39;100199.72;;;21.62;45.30
5755;BME280;2902;42.130;24.732;2024-02-28T09:36:06;100205.47;;;21.65;44.18
5755;BME280;2902;42.130;24.732;2024-02-28T09:38:33;100198.31;;;21.59;43.84
5755;BME280;2902;42.130;24.732;2024-02-28T09:41:00;100197.13;;;21.50;44.78
5755;BME280;2902;42.130;24.732;2024-02-28T09:43:29;100195.34;;;21.39;45.27
5755;BME280;2902;42.130;24.732;2024-02-28T09:45:58;100191.44;;;21.30;45.14
5755;BME280;2902;42.130;24.732;2024-02-28T09:48:26;100187.53;;;21.21;45.53
5755;BME280;2902;42.130;24.732;2024-02-28T09:50:56;100192.47;;;20.91;45.96
5755;BME280;2902;42.130;24.732;2024-02-28T09:53:23;100183.13;;;20.54;47.62
5755;BME280;2902;42.130;24.732;2024-02-28T09:55:50;100166.38;;;20.52;47.14
5755;BME280;2902;42.130;24.732;2024-02-28T09:58:18;100165.50;;;20.63;47.51
5755;BME280;2902;42.130;24.732;2024-02-28T10:00:46;100166.72;;;20.72;46.42
5755;BME280;2902;42.130;24.732;2024-02-28T10:03:17;100161.66;;;20.59;47.04
5755;BME280;2902;42.130;24.732;2024-02-28T10:05:44;100161.66;;;20.59;47.09
5755;BME280;2902;42.130;24.732;2024-02-28T10:08:12;100153.88;;;20.63;47.00
5755;BME280;2902;42.130;24.732;2024-02-28T10:10:45;100155.09;;;20.55;47.27
5755;BME280;2902;42.130;24.732;2024-02-28T10:13:12;100158.69;;;20.44;47.11
5755;BME280;2902;42.130;24.732;2024-02-28T10:15:39;100154.28;;;20.10;48.71
5755;BME280;2902;42.130;24.732;2024-02-28T10:18:06;100152.63;;;19.81;50.01
5755;BME280;2902;42.130;24.732;2024-02-28T10:20:33;100144.22;;;19.66;50.26
5755;BME280;2902;42.130;24.732;2024-02-28T10:23:03;100134.59;;;19.70;50.16
5755;BME280;2902;42.130;24.732;2024-02-28T10:25:31;100142.50;;;19.88;49.25
5755;BME280;2902;42.130;24.732;2024-02-28T10:27:59;100127.22;;;19.93;50.33
5755;BME280;2902;42.130;24.732;2024-02-28T10:30:26;100130.38;;;20.02;49.77
5755;BME280;2902;42.130;24.732;2024-02-28T10:32:53;100122.03;;;20.03;49.89
5755;BME280;2902;42.130;24.732;2024-02-28T10:35:21;100127.88;;;20.12;49.25
5755;BME280;2902;42.130;24.732;2024-02-28T10:37:51;100121.44;;;20.01;48.95
5755;BME280;2902;42.130;24.732;2024-02-28T10:40:19;100115.72;;;19.98;49.28
5755;BME280;2902;42.130;24.732;2024-02-28T10:42:48;100109.59;;;20.02;49.80
5755;BME280;2902;42.130;24.732;2024-02-28T10:45:17;100114.72;;;19.87;49.38
5755;BME280;2902;42.130;24.732;2024-02-28T10:47:45;100101.50;;;20.02;49.09
5755;BME280;2902;42.130;24.732;2024-02-28T10:50:13;100089.91;;;20.02;49.58
5755;BME280;2902;42.130;24.732;2024-02-28T10:52:43;100092.31;;;19.87;49.91
5755;BME280;2902;42.130;24.732;2024-02-28T10:55:13;100087.84;;;19.92;50.20
5755;BME280;2902;42.130;24.732;2024-02-28T10:57:43;100085.78;;;19.83;49.60
5755;BME280;2902;42.130;24.732;2024-02-28T11:00:15;100083.47;;;19.75;50.17
5755;BME280;2902;42.130;24.732;2024-02-28T11:02:43;100075.53;;;19.68;50.56
5755;BME280;2902;42.130;24.732;2024-02-28T11:05:10;100081.59;;;19.75;50.36
5755;BME280;2902;42.130;24.732;2024-02-28T11:07:40;100073.94;;;19.56;50.21
5755;BME280;2902;42.130;24.732;2024-02-28T11:10:08;100068.56;;;19.44;51.31
5755;BME280;2902;42.130;24.732;2024-02-28T11:12:35;100047.56;;;19.07;51.50
5755;BME280;2902;42.130;24.732;2024-02-28T11:15:04;100049.34;;;19.01;52.20
5755;BME280;2902;42.130;24.732;2024-02-28T11:17:33;100064.56;;;18.96;52.52
5755;BME280;2902;42.130;24.732;2024-02-28T11:20:00;100052.97;;;18.95;52.74
5755;BME280;2902;42.130;24.732;2024-02-28T11:22:37;100054.16;;;18.88;53.25
5755;BME280;2902;42.130;24.732;2024-02-28T11:25:04;100042.09;;;18.79;53.29
5755;BME280;2902;42.130;24.732;2024-02-28T11:27:31;100045.72;;;18.73;53.33
5755;BME280;2902;42.130;24.732;2024-02-28T11:29:58;100049.84;;;18.64;53.46
5755;BME280;2902;42.130;24.732;2024-02-28T11:32:25;100036.03;;;18.72;53.43
5755;BME280;2902;42.130;24.732;2024-02-28T11:34:54;100030.88;;;18.59;54.13
5755;BME280;2902;42.130;24.732;2024-02-28T11:37:20;100043.16;;;18.55;54.26
5755;BME280;2902;42.130;24.732;2024-02-28T11:39:46;100032.88;;;18.52;54.17
5755;BME280;2902;42.130;24.732;2024-02-28T11:42:15;100023.50;;;18.54;54.14
5755;BME280;2902;42.130;24.732;2024-02-28T11:44:42;100004.78;;;18.48;54.96
5755;BME280;2902;42.130;24.732;2024-02-28T11:47:09;100010.88;;;18.55;53.79
5755;BME280;2902;42.130;24.732;2024-02-28T11:49:36;100009.56;;;18.69;53.50
5755;BME280;2902;42.130;24.732;2024-02-28T11:52:05;100018.56;;;18.86;52.15
5755;BME280;2902;42.130;24.732;2024-02-28T11:54:32;100010.13;;;18.94;52.42
5755;BME280;2902;42.130;24.732;2024-02-28T11:56:59;100009.38;;;19.10;51.87
5755;BME280;2902;42.130;24.732;2024-02-28T11:59:25;100003.28;;;19.14;50.79
5755;BME280;2902;42.130;24.732;2024-02-28T12:01:52;100004.69;;;19.17;51.53
5755;BME280;2902;42.130;24.732;2024-02-28T12:04:21;99982.34;;;19.05;51.87
5755;BME280;2902;42.130;24.732;2024-02-28T12:06:50;100002.81;;;19.17;51.42
5755;BME280;2902;42.130;24.732;2024-02-28T12:09:18;99992.94;;;19.23;51.46
5755;BME280;2902;42.130;24.732;2024-02-28T12:11:46;99982.44;;;19.10;51.83
5755;BME280;2902;42.130;24.732;2024-02-28T12:14:13;99993.63;;;18.90;52.03
5755;BME280;2902;42.130;24.732;2024-02-28T12:16:40;99984.19;;;18.76;53.08
5755;BME280;2902;42.130;24.732;2024-02-28T12:19:07;99989.34;;;18.78;52.64
5755;BME280;2902;42.130;24.732;2024-02-28T12:21:35;99981.16;;;18.61;52.45
5755;BME280;2902;42.130;24.732;2024-02-28T12:24:02;99976.34;;;18.63;53.39
5755;BME280;2902;42.130;24.732;2024-02-28T12:26:31;99964.06;;;18.56;53.00
5755;BME280;2902;42.130;24.732;2024-02-28T12:28:58;99984.41;;;18.75;52.67
5755;BME280;2902;42.130;24.732;2024-02-28T12:31:25;99973.66;;;18.75;52.45
5755;BME280;2902;42.130;24.732;2024-02-28T12:33:51;99976.25;;;18.70;52.24
5755;BME280;2902;42.130;24.732;2024-02-28T12:36:19;99971.34;;;18.55;53.13
5755;BME280;2902;42.130;24.732;2024-02-28T12:38:46;99963.16;;;18.62;53.48
5755;BME280;2902;42.130;24.732;2024-02-28T12:41:12;99957.97;;;18.72;53.46
5755;BME280;2902;42.130;24.732;2024-02-28T12:43:41;99961.34;;;18.67;53.57
5755;BME280;2902;42.130;24.732;2024-02-28T12:46:08;99957.03;;;18.66;53.23
5755;BME280;2902;42.130;24.732;2024-02-28T12:48:37;99950.38;;;18.57;53.93
5755;BME280;2902;42.130;24.732;2024-02-28T12:51:04;99955.19;;;18.67;53.93
5755;BME280;2902;42.130;24.732;2024-02-28T12:53:31;99947.91;;;18.79;53.70
5755;BME280;2902;42.130;24.732;2024-02-28T12:55:58;99942.84;;;18.82;53.65
5755;BME280;2902;42.130;24.732;2024-02-28T12:58:25;99942.94;;;18.99;53.24
5755;BME280;2902;42.130;24.732;2024-02-28T13:00:53;99946.03;;;19.07;52.85
5755;BME280;2902;42.130;24.732;2024-02-28T13:03:20;99937.94;;;19.19;52.69
5755;BME280;2902;42.130;24.732;2024-02-28T13:05:47;99941.56;;;19.24;52.50
5755;BME280;2902;42.130;24.732;2024-02-28T13:08:14;99935.56;;;19.22;52.62